Time;durP1;ratioP1;P1;durP2;ratioP2;P2;SDS_P1;SDS_P2;PMS_P1;PMS_P2;Temp;Humidity;BMP_temperature;BMP_pressure;BME280_temperature;BME280_humidity;BME280_pressure;Samples;Min_cycle;Max_cycle;Signal;HPM_P1;HPM_P2
2021/03/06 00:01:32;;;;;;;9.13;5.03;;;2.50;99.90;;;;;;5089343;28;20450;-50
2021/03/06 00:03:59;;;;;;;12.53;6.47;;;2.40;99.90;;;;;;5090116;28;21064;-50
2021/03/06 00:06:25;;;;;;;6.53;4.70;;;2.20;99.90;;;;;;5090215;28;20485;-50
2021/03/06 00:08:53;;;;;;;7.80;4.40;;;2.00;99.90;;;;;;5090113;28;20457;-50
2021/03/06 00:11:19;;;;;;;11.40;5.30;;;1.90;99.90;;;;;;5090137;28;20454;-49
2021/03/06 00:13:46;;;;;;;9.07;4.93;;;1.80;99.90;;;;;;5090252;28;21001;-49
2021/03/06 00:16:12;;;;;;;9.30;4.70;;;1.70;99.90;;;;;;5089829;28;20470;-50
2021/03/06 00:18:39;;;;;;;8.20;4.63;;;1.90;99.90;;;;;;5090301;28;20449;-50
2021/03/06 00:21:06;;;;;;;7.90;4.10;;;1.80;99.90;;;;;;5090030;28;20456;-50
2021/03/06 00:23:33;;;;;;;10.53;5.13;;;2.00;99.90;;;;;;5080543;28;20918;-50
2021/03/06 00:26:00;;;;;;;7.70;4.37;;;2.20;99.90;;;;;;5073844;28;21025;-49
2021/03/06 00:28:27;;;;;;;6.53;4.20;;;2.40;99.90;;;;;;5080618;28;20507;-50
2021/03/06 00:30:54;;;;;;;6.60;4.50;;;2.40;99.90;;;;;;5080757;28;20460;-50
2021/03/06 00:33:20;;;;;;;7.67;4.87;;;2.50;99.90;;;;;;5090221;28;20552;-50
2021/03/06 00:35:47;;;;;;;8.77;5.47;;;2.50;99.90;;;;;;5089680;28;20467;-50
2021/03/06 00:38:13;;;;;;;8.50;5.13;;;2.40;99.90;;;;;;5088743;28;20834;-50
2021/03/06 00:40:40;;;;;;;7.30;4.30;;;2.30;99.90;;;;;;5085214;28;20443;-48
2021/03/06 00:43:08;;;;;;;8.20;4.77;;;2.10;99.90;;;;;;5083798;28;20486;-49
2021/03/06 00:45:34;;;;;;;5.80;3.83;;;2.10;99.90;;;;;;5091379;28;20468;-49
2021/03/06 00:48:01;;;;;;;7.33;5.03;;;2.30;99.90;;;;;;5093225;28;20499;-50
2021/03/06 00:50:31;;;;;;;9.33;5.17;;;2.30;99.90;;;;;;5093531;28;20454;-49
2021/03/06 00:52:58;;;;;;;7.97;6.03;;;2.30;99.90;;;;;;5093298;28;20452;-49
2021/03/06 00:55:25;;;;;;;8.80;6.70;;;2.40;99.90;;;;;;5092980;28;20481;-49
2021/03/06 00:57:51;;;;;;;9.53;6.53;;;2.30;99.90;;;;;;5093657;28;20520;-49
2021/03/06 01:00:19;;;;;;;7.73;5.93;;;2.20;99.90;;;;;;5093406;28;20872;-49
2021/03/06 01:02:46;;;;;;;8.43;5.37;;;2.00;99.90;;;;;;5094387;28;20542;-49
2021/03/06 01:05:14;;;;;;;7.37;4.40;;;1.90;99.90;;;;;;5093407;28;20472;-48
2021/03/06 01:07:41;;;;;;;6.40;4.43;;;1.70;99.90;;;;;;5079687;28;20462;-49
2021/03/06 01:10:10;;;;;;;7.10;5.20;;;1.70;99.90;;;;;;5084587;28;20442;-49
2021/03/06 01:12:37;;;;;;;7.93;4.67;;;1.60;99.90;;;;;;5091302;28;20955;-49
2021/03/06 01:15:04;;;;;;;8.40;5.13;;;1.70;99.90;;;;;;5092745;28;20457;-49
2021/03/06 01:17:32;;;;;;;9.03;5.13;;;1.60;99.90;;;;;;5112252;28;20526;-49
2021/03/06 01:19:59;;;;;;;7.17;4.83;;;1.60;99.90;;;;;;5095805;28;21028;-49
2021/03/06 01:22:25;;;;;;;7.63;5.00;;;1.70;99.90;;;;;;5095187;28;20458;-49
2021/03/06 01:24:52;;;;;;;8.73;5.13;;;1.80;99.90;;;;;;5102015;28;20438;-49
2021/03/06 01:27:18;;;;;;;7.20;4.93;;;1.80;99.90;;;;;;5111472;28;20568;-49
2021/03/06 01:29:45;;;;;;;8.17;4.80;;;1.80;99.90;;;;;;5111475;28;20449;-49
2021/03/06 01:32:12;;;;;;;8.10;5.17;;;1.80;99.90;;;;;;5112354;28;20474;-49
2021/03/06 01:34:40;;;;;;;6.60;4.10;;;1.70;99.90;;;;;;5111621;28;20469;-49
2021/03/06 01:37:07;;;;;;;7.47;5.00;;;1.70;99.90;;;;;;5111051;28;20489;-49
2021/03/06 01:39:34;;;;;;;6.40;4.17;;;1.80;99.90;;;;;;5108267;28;20461;-49
2021/03/06 01:42:00;;;;;;;8.10;4.87;;;1.80;99.90;;;;;;5093028;28;20450;-50
2021/03/06 01:44:27;;;;;;;9.70;5.23;;;1.90;99.90;;;;;;5092138;28;20486;-50
2021/03/06 01:46:53;;;;;;;7.03;4.00;;;1.90;99.90;;;;;;5089772;28;20469;-50
2021/03/06 01:49:20;;;;;;;7.50;5.40;;;1.90;99.90;;;;;;5092454;28;20445;-49
2021/03/06 01:51:47;;;;;;;7.07;4.70;;;1.90;99.90;;;;;;5092324;28;20454;-49
2021/03/06 01:54:17;;;;;;;7.87;4.73;;;1.70;99.90;;;;;;5091407;28;20449;-49
2021/03/06 01:56:44;;;;;;;6.43;4.40;;;1.70;99.90;;;;;;5077138;28;21057;-50
2021/03/06 01:59:11;;;;;;;6.83;4.47;;;1.60;99.90;;;;;;5091984;28;20446;-49
2021/03/06 02:01:37;;;;;;;7.90;4.40;;;1.70;99.90;;;;;;5090787;28;20959;-50
2021/03/06 02:04:04;;;;;;;6.67;4.40;;;1.80;99.90;;;;;;5091770;28;20508;-50
2021/03/06 02:06:31;;;;;;;9.40;4.20;;;1.80;99.90;;;;;;5091739;28;20978;-49
2021/03/06 02:08:58;;;;;;;7.67;4.70;;;1.80;99.90;;;;;;5091168;28;21009;-50
2021/03/06 02:11:37;;;;;;;6.80;4.37;;;1.80;99.90;;;;;;5092239;28;20486;-49
2021/03/06 02:14:34;;;;;;;6.10;4.50;;;1.60;99.90;;;;;;5089788;28;20453;-49
2021/03/06 02:17:05;;;;;;;8.70;4.70;;;1.60;99.90;;;;;;5091342;28;20532;-49
2021/03/06 02:20:08;;;;;;;7.53;4.33;;;1.70;99.90;;;;;;5091504;28;20521;-49
2021/03/06 02:22:59;;;;;;;8.27;4.57;;;1.90;99.90;;;;;;5066267;28;20507;-50
2021/03/06 02:25:54;;;;;;;7.27;4.50;;;2.00;99.90;;;;;;5090658;28;20442;-49
2021/03/06 02:28:34;;;;;;;6.10;4.50;;;2.10;99.90;;;;;;5083544;28;20450;-50
2021/03/06 02:31:03;;;;;;;7.97;4.50;;;2.20;99.90;;;;;;5081559;28;20821;-50
2021/03/06 02:33:32;;;;;;;7.07;4.30;;;2.30;99.90;;;;;;5090048;28;20439;-50
2021/03/06 02:36:02;;;;;;;7.13;4.53;;;2.30;99.90;;;;;;5090441;28;20474;-49
2021/03/06 02:38:30;;;;;;;8.50;5.13;;;2.10;99.90;;;;;;5091115;28;20442;-48
2021/03/06 02:40:57;;;;;;;8.20;5.47;;;2.10;99.90;;;;;;5091046;28;20457;-50
2021/03/06 02:43:26;;;;;;;7.40;4.60;;;2.10;99.90;;;;;;5090732;28;20484;-49
2021/03/06 02:45:53;;;;;;;6.33;4.30;;;2.20;99.90;;;;;;5090632;28;20482;-49
2021/03/06 02:48:21;;;;;;;8.27;4.67;;;2.20;99.90;;;;;;5091490;28;20441;-49
2021/03/06 02:50:53;;;;;;;8.83;5.30;;;2.30;99.90;;;;;;5084436;28;20452;-50
2021/03/06 02:53:20;;;;;;;6.90;4.70;;;2.20;99.90;;;;;;5091104;28;20476;-50
2021/03/06 02:55:47;;;;;;;8.30;4.30;;;2.20;99.90;;;;;;5089583;28;20461;-49
2021/03/06 02:58:24;;;;;;;8.13;5.10;;;2.00;99.90;;;;;;5090614;28;20445;-50
2021/03/06 03:00:53;;;;;;;10.90;5.23;;;1.60;99.90;;;;;;5074380;28;20945;-50
2021/03/06 03:03:34;;;;;;;8.20;5.00;;;1.40;99.90;;;;;;5071026;28;20915;-50
2021/03/06 03:06:11;;;;;;;10.33;5.40;;;1.30;99.90;;;;;;5081443;28;20470;-49
2021/03/06 03:08:49;;;;;;;9.20;5.83;;;1.30;99.90;;;;;;5090861;28;20448;-51
2021/03/06 03:11:22;;;;;;;10.23;5.70;;;1.30;99.90;;;;;;5088151;28;21017;-49
2021/03/06 03:13:53;;;;;;;9.80;5.40;;;1.20;99.90;;;;;;5090647;28;20953;-50
2021/03/06 03:16:22;;;;;;;9.57;5.77;;;1.20;99.90;;;;;;5090399;28;20471;-49
2021/03/06 03:18:58;;;;;;;8.63;5.10;;;1.20;99.90;;;;;;5090903;28;20450;-49
2021/03/06 03:21:28;;;;;;;11.83;6.07;;;1.40;99.90;;;;;;5082569;28;20457;-48
2021/03/06 03:24:00;;;;;;;10.60;5.47;;;1.30;99.90;;;;;;5078432;28;20469;-48
2021/03/06 03:26:29;;;;;;;9.47;5.80;;;1.30;99.90;;;;;;5090135;28;20491;-48
2021/03/06 03:28:57;;;;;;;10.53;5.83;;;1.30;99.90;;;;;;5089758;28;20465;-48
2021/03/06 03:31:25;;;;;;;9.60;5.93;;;1.30;99.90;;;;;;5088080;28;20496;-49
2021/03/06 03:33:53;;;;;;;14.20;5.60;;;1.30;99.90;;;;;;5090174;28;20453;-49
2021/03/06 03:36:23;;;;;;;9.73;5.40;;;1.30;99.90;;;;;;5082388;28;20494;-49
2021/03/06 03:38:50;;;;;;;11.00;5.57;;;1.20;99.90;;;;;;5079711;28;20457;-49
2021/03/06 03:41:17;;;;;;;10.53;5.43;;;1.20;99.90;;;;;;5088509;28;20471;-49
2021/03/06 03:43:44;;;;;;;12.00;6.07;;;1.20;99.90;;;;;;5078919;28;20489;-49
2021/03/06 03:46:11;;;;;;;15.20;6.30;;;1.20;99.90;;;;;;5085826;28;20476;-50
2021/03/06 03:48:42;;;;;;;11.03;6.23;;;1.10;99.90;;;;;;5083028;28;20455;-49
2021/03/06 03:51:10;;;;;;;11.00;6.17;;;1.20;99.90;;;;;;5090452;28;20457;-49
2021/03/06 03:53:37;;;;;;;12.57;6.20;;;1.40;99.90;;;;;;5090530;28;20495;-49
2021/03/06 03:56:04;;;;;;;13.13;6.17;;;1.20;99.90;;;;;;5090552;28;20473;-49
2021/03/06 03:58:30;;;;;;;9.33;5.60;;;1.20;99.90;;;;;;5090822;28;20511;-49
2021/03/06 04:00:58;;;;;;;9.73;5.43;;;1.10;99.90;;;;;;5090272;28;20869;-49
2021/03/06 04:03:25;;;;;;;12.20;6.47;;;1.00;99.90;;;;;;5091107;28;20494;-49
2021/03/06 04:05:52;;;;;;;9.00;5.67;;;1.00;99.90;;;;;;5090102;28;20480;-49
2021/03/06 04:08:19;;;;;;;13.53;5.90;;;1.00;99.90;;;;;;5083263;28;20457;-49
2021/03/06 04:10:46;;;;;;;10.70;5.87;;;0.90;99.90;;;;;;5084637;28;20453;-49
2021/03/06 04:13:12;;;;;;;14.60;7.20;;;1.00;99.90;;;;;;5090151;28;20452;-49
2021/03/06 04:15:39;;;;;;;11.50;6.77;;;1.00;99.90;;;;;;5090215;28;20452;-49
2021/03/06 04:18:06;;;;;;;12.37;6.13;;;1.10;99.90;;;;;;5093108;28;20566;-49
2021/03/06 04:20:34;;;;;;;9.93;6.10;;;1.10;99.90;;;;;;5094135;28;20460;-49
2021/03/06 04:23:01;;;;;;;11.87;6.20;;;1.10;99.90;;;;;;5094584;28;20714;-49
2021/03/06 04:25:29;;;;;;;10.83;6.17;;;1.30;99.90;;;;;;5093035;28;21087;-49
2021/03/06 04:27:56;;;;;;;9.17;5.30;;;1.50;99.90;;;;;;5090308;28;20846;-50
2021/03/06 04:30:23;;;;;;;10.40;5.70;;;1.80;99.90;;;;;;5094513;28;20460;-49
2021/03/06 04:32:49;;;;;;;11.93;6.30;;;1.70;99.90;;;;;;5094428;28;20448;-49
2021/03/06 04:35:16;;;;;;;10.57;6.20;;;1.70;99.90;;;;;;5091659;28;20452;-50
2021/03/06 04:37:42;;;;;;;11.20;6.07;;;1.80;99.90;;;;;;5094227;28;20472;-49
2021/03/06 04:40:11;;;;;;;10.90;6.23;;;1.90;99.90;;;;;;5093077;28;20454;-49
2021/03/06 04:42:39;;;;;;;10.90;7.00;;;1.80;99.90;;;;;;5093687;28;20449;-49
2021/03/06 04:45:07;;;;;;;14.93;9.37;;;1.60;99.90;;;;;;5094169;28;20487;-50
2021/03/06 04:47:34;;;;;;;13.00;7.70;;;1.50;99.90;;;;;;5094142;28;21001;-49
2021/03/06 04:50:00;;;;;;;10.33;6.03;;;1.50;99.90;;;;;;5093401;28;20449;-49
2021/03/06 04:52:27;;;;;;;10.00;6.00;;;1.30;99.90;;;;;;5093129;28;20467;-49
2021/03/06 04:54:53;;;;;;;14.87;6.67;;;1.20;99.90;;;;;;5093180;28;20464;-49
2021/03/06 04:57:20;;;;;;;9.87;5.70;;;1.30;99.90;;;;;;5093705;28;20473;-50
2021/03/06 04:59:48;;;;;;;11.40;6.37;;;1.30;99.90;;;;;;5093299;28;21091;-49
2021/03/06 05:02:14;;;;;;;10.50;5.90;;;1.30;99.90;;;;;;5087475;28;20533;-49
2021/03/06 05:04:41;;;;;;;13.13;6.53;;;1.40;99.90;;;;;;5074762;28;20918;-49
2021/03/06 05:07:10;;;;;;;11.63;5.50;;;1.30;99.90;;;;;;5093458;28;21119;-50
2021/03/06 05:09:37;;;;;;;11.37;6.43;;;1.30;99.90;;;;;;5093402;28;20486;-50
2021/03/06 05:12:04;;;;;;;15.13;6.37;;;1.30;99.90;;;;;;5101324;28;20447;-50
2021/03/06 05:14:31;;;;;;;12.13;6.43;;;1.10;99.90;;;;;;5074546;28;20446;-50
2021/03/06 05:16:58;;;;;;;12.07;6.67;;;1.00;99.90;;;;;;5088193;28;20469;-50
2021/03/06 05:19:25;;;;;;;11.73;6.63;;;0.90;99.90;;;;;;5093363;28;20886;-50
2021/03/06 05:21:51;;;;;;;11.90;6.97;;;0.90;99.90;;;;;;5093113;28;20527;-49
2021/03/06 05:24:18;;;;;;;13.80;6.87;;;1.00;99.90;;;;;;5077633;28;20481;-50
2021/03/06 05:26:44;;;;;;;13.37;7.00;;;1.10;99.90;;;;;;5079966;28;20478;-50
2021/03/06 05:29:11;;;;;;;12.40;6.10;;;1.20;99.90;;;;;;5094700;28;20449;-50
2021/03/06 05:31:38;;;;;;;11.90;6.70;;;1.20;99.90;;;;;;5115597;22;20496;-48
2021/03/06 05:34:06;;;;;;;11.77;6.47;;;1.20;99.90;;;;;;5091031;28;20457;-47
2021/03/06 05:36:33;;;;;;;11.97;6.70;;;1.20;99.90;;;;;;5092154;28;20513;-47
2021/03/06 05:39:00;;;;;;;15.33;6.93;;;1.10;99.90;;;;;;5092461;28;20522;-48
2021/03/06 05:41:26;;;;;;;14.60;8.57;;;1.00;99.90;;;;;;5091488;28;20475;-48
2021/03/06 05:43:55;;;;;;;13.60;7.40;;;0.90;99.90;;;;;;5092025;28;20480;-48
2021/03/06 05:46:22;;;;;;;12.50;7.10;;;0.90;99.90;;;;;;5091766;28;20453;-48
2021/03/06 05:48:49;;;;;;;12.40;6.80;;;0.70;99.90;;;;;;5090767;28;20453;-48
2021/03/06 05:51:16;;;;;;;13.40;7.30;;;0.60;99.90;;;;;;5090600;28;20464;-48
2021/03/06 05:53:44;;;;;;;12.97;6.90;;;0.50;99.90;;;;;;5090694;28;20455;-48
2021/03/06 05:56:13;;;;;;;11.10;6.70;;;0.40;99.90;;;;;;5078762;28;20615;-47
2021/03/06 05:58:43;;;;;;;14.47;7.07;;;0.50;99.90;;;;;;5072617;28;20456;-48
2021/03/06 06:01:14;;;;;;;14.23;7.97;;;0.70;99.90;;;;;;5091878;28;20476;-48
2021/03/06 06:03:41;;;;;;;13.33;6.77;;;0.50;99.90;;;;;;5092089;28;20583;-48
2021/03/06 06:06:08;;;;;;;14.07;7.10;;;0.50;99.90;;;;;;5092028;28;20539;-48
2021/03/06 06:08:37;;;;;;;13.50;6.67;;;0.70;99.90;;;;;;5092135;28;20480;-48
2021/03/06 06:11:04;;;;;;;14.73;7.03;;;0.70;99.90;;;;;;5092101;28;20473;-48
2021/03/06 06:13:30;;;;;;;16.70;8.50;;;0.60;99.90;;;;;;5091467;28;20758;-48
2021/03/06 06:15:57;;;;;;;13.07;6.90;;;0.60;99.90;;;;;;5091426;28;20449;-47
2021/03/06 06:18:25;;;;;;;15.30;7.23;;;0.60;99.90;;;;;;5091714;28;20968;-48
2021/03/06 06:20:52;;;;;;;12.53;6.20;;;0.60;99.90;;;;;;5091820;28;20488;-47
2021/03/06 06:23:18;;;;;;;16.70;7.93;;;0.60;99.90;;;;;;5091672;28;20476;-48
2021/03/06 06:25:47;;;;;;;15.37;7.53;;;0.70;99.90;;;;;;5091580;28;20448;-47
2021/03/06 06:28:13;;;;;;;14.00;7.53;;;0.80;99.90;;;;;;5091747;28;20458;-48
2021/03/06 06:30:40;;;;;;;16.40;8.17;;;0.80;99.90;;;;;;5091690;28;20480;-48
2021/03/06 06:33:07;;;;;;;15.13;7.93;;;0.80;99.90;;;;;;5091420;28;20449;-48
2021/03/06 06:35:41;;;;;;;16.07;7.60;;;0.80;99.90;;;;;;5091287;28;20512;-47
2021/03/06 06:38:09;;;;;;;16.30;7.77;;;0.90;99.90;;;;;;5091575;28;20456;-48
2021/03/06 06:40:38;;;;;;;14.33;7.50;;;1.00;99.90;;;;;;5090123;28;21022;-48
2021/03/06 06:43:21;;;;;;;14.30;6.77;;;1.10;99.90;;;;;;5091098;28;20443;-48
2021/03/06 06:45:48;;;;;;;19.10;6.73;;;1.20;99.90;;;;;;5091190;28;20517;-48
2021/03/06 06:48:17;;;;;;;11.67;6.80;;;1.30;99.90;;;;;;5090735;28;20524;-48
2021/03/06 06:50:43;;;;;;;13.20;6.80;;;1.40;99.90;;;;;;5091162;28;20476;-47
2021/03/06 06:53:23;;;;;;;11.70;6.23;;;1.60;99.90;;;;;;5090704;28;20950;-48
2021/03/06 06:55:49;;;;;;;13.07;6.53;;;1.70;99.90;;;;;;5090870;28;20529;-48
2021/03/06 06:58:17;;;;;;;11.03;6.33;;;1.60;99.90;;;;;;5091103;28;20445;-48
2021/03/06 07:00:44;;;;;;;11.70;6.27;;;1.70;99.90;;;;;;5090743;28;21194;-48
2021/03/06 07:03:21;;;;;;;12.37;6.57;;;1.80;99.90;;;;;;5087701;28;20452;-48
2021/03/06 07:05:48;;;;;;;15.00;8.53;;;2.00;99.90;;;;;;5090416;28;20487;-48
2021/03/06 07:08:23;;;;;;;13.47;7.80;;;2.20;99.90;;;;;;5090686;28;20479;-48
2021/03/06 07:10:50;;;;;;;12.70;7.00;;;2.80;99.90;;;;;;5090578;28;20444;-48
2021/03/06 07:13:18;;;;;;;13.27;7.03;;;3.20;99.90;;;;;;5090855;28;20822;-48
2021/03/06 07:15:53;;;;;;;11.57;7.03;;;3.20;99.90;;;;;;5092050;28;20465;-48
2021/03/06 07:18:20;;;;;;;12.90;7.20;;;3.30;99.90;;;;;;5089242;28;20453;-48
2021/03/06 07:20:48;;;;;;;11.17;6.70;;;3.50;99.90;;;;;;5090622;28;20462;-48
2021/03/06 07:23:18;;;;;;;12.97;6.87;;;3.30;99.90;;;;;;5093479;28;20467;-48
2021/03/06 07:25:45;;;;;;;13.77;7.30;;;3.50;99.90;;;;;;5109941;28;20449;-48
2021/03/06 07:28:14;;;;;;;12.60;7.03;;;3.70;99.90;;;;;;5097174;28;20966;-48
2021/03/06 07:30:41;;;;;;;13.53;7.20;;;3.80;99.90;;;;;;5090422;28;20460;-48
2021/03/06 07:33:11;;;;;;;12.30;6.80;;;3.80;99.90;;;;;;5088289;28;20942;-48
2021/03/06 07:35:40;;;;;;;15.77;6.90;;;3.50;99.90;;;;;;5089611;28;20453;-48
2021/03/06 07:38:09;;;;;;;11.37;6.70;;;3.20;99.90;;;;;;5090643;28;20468;-48
2021/03/06 07:40:39;;;;;;;13.50;7.27;;;3.00;99.90;;;;;;5089469;28;21028;-48
2021/03/06 07:43:11;;;;;;;11.40;6.20;;;3.20;99.90;;;;;;5090143;28;21023;-48
2021/03/06 07:45:41;;;;;;;11.50;6.93;;;3.40;99.90;;;;;;5090383;28;20454;-48
2021/03/06 07:48:09;;;;;;;11.97;6.60;;;3.30;99.90;;;;;;5090715;28;20510;-48
2021/03/06 07:50:39;;;;;;;11.83;6.87;;;3.40;99.90;;;;;;5089879;28;20449;-48
2021/03/06 07:53:07;;;;;;;11.30;6.90;;;3.80;99.90;;;;;;5085540;28;20447;-48
2021/03/06 07:55:35;;;;;;;12.40;7.03;;;4.80;99.90;;;;;;5085391;28;20452;-48
2021/03/06 07:58:12;;;;;;;11.37;6.67;;;5.50;99.90;;;;;;5094631;28;20454;-48
2021/03/06 08:00:58;;;;;;;12.93;7.50;;;6.20;99.90;;;;;;5094593;28;20445;-48
2021/03/06 08:03:38;;;;;;;11.00;6.40;;;6.10;99.90;;;;;;5094417;28;20566;-48
2021/03/06 08:06:21;;;;;;;12.73;6.37;;;5.90;99.90;;;;;;5094347;28;21014;-48
2021/03/06 08:09:05;;;;;;;12.37;6.37;;;5.90;99.90;;;;;;5092072;28;20511;-48
2021/03/06 08:11:43;;;;;;;19.90;6.53;;;6.00;99.90;;;;;;5094201;28;20469;-48
2021/03/06 08:14:30;;;;;;;12.97;6.97;;;6.20;99.90;;;;;;5094011;28;20506;-48
2021/03/06 08:16:57;;;;;;;11.90;6.83;;;7.00;99.90;;;;;;5094402;28;20461;-48
2021/03/06 08:19:27;;;;;;;10.07;6.37;;;7.30;99.90;;;;;;5093991;28;20841;-48
2021/03/06 08:21:56;;;;;;;11.30;6.43;;;7.60;99.90;;;;;;5093855;28;20478;-48
2021/03/06 08:24:30;;;;;;;13.03;7.13;;;8.00;99.90;;;;;;5094223;28;20485;-48
2021/03/06 08:27:26;;;;;;;12.00;7.50;;;8.20;99.90;;;;;;5093966;28;20970;-48
2021/03/06 08:29:58;;;;;;;10.93;6.57;;;7.80;99.90;;;;;;5031456;28;20494;-48
2021/03/06 08:32:37;;;;;;;11.37;6.67;;;7.80;99.90;;;;;;5081247;28;20477;-48
2021/03/06 08:35:21;;;;;;;10.90;6.83;;;8.00;99.90;;;;;;5093144;28;20491;-48
2021/03/06 08:37:49;;;;;;;10.70;6.77;;;7.50;99.90;;;;;;5093971;28;21004;-48
2021/03/06 08:40:18;;;;;;;9.97;6.30;;;8.00;99.90;;;;;;5093875;28;20476;-48
2021/03/06 08:42:48;;;;;;;13.90;7.60;;;8.30;99.90;;;;;;5093003;28;20457;-49
2021/03/06 08:45:19;;;;;;;11.73;7.20;;;9.00;99.90;;;;;;5093162;28;20978;-48
2021/03/06 08:47:47;;;;;;;11.30;7.33;;;9.40;99.90;;;;;;5093016;28;20507;-48
2021/03/06 08:50:18;;;;;;;11.50;6.60;;;9.60;99.90;;;;;;5093177;28;20962;-49
2021/03/06 08:52:58;;;;;;;10.20;7.27;;;9.40;99.90;;;;;;5092678;28;20504;-49
2021/03/06 08:55:27;;;;;;;10.23;6.90;;;9.10;99.90;;;;;;5079434;28;20541;-49
2021/03/06 08:57:53;;;;;;;10.50;7.37;;;9.80;99.90;;;;;;5073430;28;20442;-48
2021/03/06 09:00:24;;;;;;;10.07;7.37;;;8.30;99.90;;;;;;5092806;28;20450;-49
2021/03/06 09:02:51;;;;;;;10.73;6.90;;;7.90;99.90;;;;;;5092310;28;20470;-48
2021/03/06 09:05:21;;;;;;;9.10;6.60;;;7.40;99.90;;;;;;5092969;28;20493;-49
2021/03/06 09:07:49;;;;;;;11.47;7.53;;;7.90;99.90;;;;;;5093323;28;20458;-49
2021/03/06 09:10:33;;;;;;;9.80;6.47;;;8.70;99.90;;;;;;5093201;28;20445;-49
2021/03/06 09:13:02;;;;;;;11.53;6.80;;;9.10;99.90;;;;;;5091891;28;20466;-49
2021/03/06 09:15:41;;;;;;;9.83;6.70;;;8.90;99.90;;;;;;5091637;28;20817;-49
2021/03/06 09:18:10;;;;;;;9.43;6.23;;;9.30;99.90;;;;;;5092866;28;20462;-48
2021/03/06 09:21:01;;;;;;;11.33;6.70;;;8.60;99.90;;;;;;5093353;28;20438;-49
2021/03/06 09:23:31;;;;;;;9.27;6.27;;;8.60;99.90;;;;;;5093194;28;20442;-49
2021/03/06 09:26:03;;;;;;;8.87;5.53;;;9.60;99.90;;;;;;5090909;28;20466;-49
2021/03/06 09:28:31;;;;;;;10.70;6.63;;;9.10;99.90;;;;;;5088499;28;20861;-49
2021/03/06 09:31:00;;;;;;;10.47;6.77;;;9.40;99.90;;;;;;5090235;28;20539;-49
2021/03/06 09:33:31;;;;;;;11.57;6.90;;;8.80;99.90;;;;;;5091685;28;20834;-49
2021/03/06 09:36:01;;;;;;;9.93;6.10;;;8.50;99.90;;;;;;5090895;28;20462;-49
2021/03/06 09:38:27;;;;;;;8.97;6.40;;;8.60;99.90;;;;;;5089678;28;20509;-48
2021/03/06 09:40:55;;;;;;;11.20;6.70;;;9.10;99.90;;;;;;5091029;28;20458;-49
2021/03/06 09:43:30;;;;;;;8.90;6.70;;;8.80;99.90;;;;;;5092471;28;20458;-49
2021/03/06 09:45:58;;;;;;;10.40;7.00;;;9.30;99.90;;;;;;5092287;28;21134;-49
2021/03/06 09:48:26;;;;;;;9.77;6.20;;;8.10;99.90;;;;;;5086194;28;20458;-49
2021/03/06 09:50:54;;;;;;;11.40;7.00;;;7.90;99.90;;;;;;5082586;28;20494;-48
2021/03/06 09:53:23;;;;;;;10.47;6.37;;;8.20;99.90;;;;;;5083355;28;20975;-49
2021/03/06 09:56:04;;;;;;;10.90;6.40;;;8.80;99.90;;;;;;5084708;28;20466;-49
2021/03/06 09:58:32;;;;;;;11.43;6.73;;;8.10;99.90;;;;;;5083260;28;20480;-48
2021/03/06 10:01:15;;;;;;;10.27;6.47;;;8.00;99.90;;;;;;5082807;28;20484;-49
2021/03/06 10:03:43;;;;;;;11.27;6.50;;;8.00;99.90;;;;;;5083960;28;21071;-49
2021/03/06 10:06:10;;;;;;;12.50;7.07;;;8.60;99.90;;;;;;5083332;28;20462;-49
2021/03/06 10:08:43;;;;;;;10.53;6.67;;;8.20;99.90;;;;;;5083977;28;20518;-48
2021/03/06 10:11:10;;;;;;;12.83;8.00;;;8.10;99.90;;;;;;5084472;28;22082;-49
2021/03/06 10:13:37;;;;;;;11.68;7.03;;;8.10;99.90;;;;;;5082251;28;20465;-47
2021/03/06 10:16:04;;;;;;;9.97;6.50;;;8.50;99.90;;;;;;5089293;28;20195;-49
2021/03/06 10:18:36;;;;;;;11.43;6.90;;;8.30;99.90;;;;;;5091365;28;20450;-48
2021/03/06 10:21:13;;;;;;;11.17;6.90;;;8.00;99.90;;;;;;5091221;28;20461;-49
2021/03/06 10:23:40;;;;;;;9.70;6.70;;;7.80;99.90;;;;;;5087270;28;20477;-49
2021/03/06 10:26:19;;;;;;;11.43;7.07;;;8.00;99.90;;;;;;5089489;28;21038;-48
2021/03/06 10:28:48;;;;;;;11.20;6.57;;;7.90;99.90;;;;;;5089947;28;20961;-48
2021/03/06 10:31:35;;;;;;;11.93;7.00;;;8.50;99.90;;;;;;5090814;28;20477;-49
2021/03/06 10:34:19;;;;;;;10.73;7.00;;;8.80;99.90;;;;;;5088075;28;20454;-48
2021/03/06 10:37:04;;;;;;;11.17;7.77;;;8.90;99.90;;;;;;5085569;28;22368;-48
2021/03/06 10:39:31;;;;;;;10.33;6.93;;;8.70;99.90;;;;;;5082236;28;20846;-48
2021/03/06 10:41:59;;;;;;;11.37;7.10;;;9.10;99.90;;;;;;5081010;28;22420;-48
2021/03/06 10:44:39;;;;;;;11.50;7.50;;;8.60;99.90;;;;;;5082777;28;20492;-48
2021/03/06 10:47:06;;;;;;;10.87;6.80;;;8.60;99.90;;;;;;5081037;28;21161;-48
2021/03/06 10:49:37;;;;;;;10.70;7.10;;;8.10;99.90;;;;;;5082701;28;20685;-48
2021/03/06 10:52:05;;;;;;;11.63;7.37;;;8.10;99.90;;;;;;5081666;28;20487;-48
2021/03/06 10:54:48;;;;;;;11.73;6.87;;;8.60;99.90;;;;;;5082563;28;20468;-48
2021/03/06 10:57:14;;;;;;;13.17;7.33;;;8.90;99.90;;;;;;5081048;28;20493;-48
2021/03/06 10:59:42;;;;;;;9.70;6.97;;;8.80;99.90;;;;;;5082128;28;20466;-48
2021/03/06 11:02:22;;;;;;;11.27;7.20;;;8.70;99.90;;;;;;5081038;28;21144;-47
2021/03/06 11:04:49;;;;;;;11.73;7.03;;;8.30;99.90;;;;;;5084101;28;20489;-48
2021/03/06 11:07:25;;;;;;;10.00;6.70;;;8.30;99.90;;;;;;5081541;28;20466;-47
2021/03/06 11:09:57;;;;;;;10.90;6.97;;;7.90;99.90;;;;;;5081698;28;20462;-48
2021/03/06 11:12:28;;;;;;;12.30;7.20;;;7.50;99.90;;;;;;5081076;28;20489;-48
2021/03/06 11:15:13;;;;;;;11.40;7.07;;;7.60;99.90;;;;;;5080958;28;20466;-48
2021/03/06 11:17:42;;;;;;;10.83;7.07;;;7.60;99.90;;;;;;5080557;28;20465;-48
2021/03/06 11:20:10;;;;;;;10.80;6.97;;;7.60;99.90;;;;;;5081339;28;20469;-48
2021/03/06 11:22:37;;;;;;;9.50;6.93;;;8.20;99.90;;;;;;5081995;28;20508;-47
2021/03/06 11:25:05;;;;;;;19.63;9.90;;;8.60;99.90;;;;;;5084004;28;20492;-49
2021/03/06 11:27:42;;;;;;;14.30;8.10;;;7.80;99.90;;;;;;5089857;28;20506;-48
2021/03/06 11:30:11;;;;;;;28.23;11.43;;;7.90;99.90;;;;;;5089517;28;21173;-48
2021/03/06 11:32:38;;;;;;;12.40;7.37;;;7.60;99.90;;;;;;5095964;22;20564;-52
2021/03/06 11:35:06;;;;;;;10.80;6.80;;;7.40;99.90;;;;;;5060326;28;20462;-52
2021/03/06 11:37:33;;;;;;;12.17;7.00;;;7.40;99.90;;;;;;5060328;28;20455;-51
2021/03/06 11:40:00;;;;;;;10.90;6.77;;;7.50;99.90;;;;;;5061485;28;20990;-51
2021/03/06 11:42:26;;;;;;;10.20;6.23;;;7.40;99.90;;;;;;5061943;28;21009;-51
2021/03/06 11:44:53;;;;;;;13.37;7.60;;;7.60;99.90;;;;;;5065520;28;20486;-52
2021/03/06 11:47:21;;;;;;;11.83;7.63;;;7.10;99.90;;;;;;5062200;28;20984;-51
2021/03/06 11:49:47;;;;;;;11.43;6.80;;;7.30;99.90;;;;;;5061969;28;20465;-51
2021/03/06 11:52:14;;;;;;;11.07;6.60;;;7.50;99.90;;;;;;5068519;28;20494;-52
2021/03/06 11:54:40;;;;;;;12.93;7.37;;;7.50;99.90;;;;;;5064177;28;20455;-51
2021/03/06 11:57:07;;;;;;;11.13;7.00;;;7.70;99.90;;;;;;5065836;28;20524;-52
2021/03/06 11:59:34;;;;;;;11.97;7.27;;;7.90;99.90;;;;;;5061234;28;20475;-52
2021/03/06 12:02:01;;;;;;;11.60;6.60;;;8.10;99.90;;;;;;5061757;28;20638;-51
2021/03/06 12:04:28;;;;;;;12.53;6.90;;;8.10;99.90;;;;;;5060785;28;20768;-51
2021/03/06 12:06:55;;;;;;;11.07;7.00;;;7.80;99.90;;;;;;5066514;28;20469;-53
2021/03/06 12:09:21;;;;;;;9.97;6.20;;;7.80;99.90;;;;;;5069119;28;20463;-51
2021/03/06 12:11:48;;;;;;;12.50;7.10;;;7.80;99.90;;;;;;5062326;28;20487;-52
2021/03/06 12:14:14;;;;;;;10.20;6.37;;;7.80;99.90;;;;;;5061756;28;20466;-52
2021/03/06 12:16:41;;;;;;;11.97;7.30;;;7.90;99.90;;;;;;5061148;28;20469;-52
2021/03/06 12:19:07;;;;;;;11.83;7.40;;;7.70;99.90;;;;;;5061696;28;20508;-52
2021/03/06 12:21:36;;;;;;;12.40;7.20;;;7.80;99.90;;;;;;5061020;28;20469;-52
2021/03/06 12:24:03;;;;;;;11.60;7.07;;;8.00;99.90;;;;;;5061363;28;20510;-52
2021/03/06 12:26:29;;;;;;;11.17;6.87;;;8.00;99.90;;;;;;5060761;28;20458;-50
2021/03/06 12:28:56;;;;;;;12.40;8.10;;;7.40;99.90;;;;;;5064615;28;20612;-51
2021/03/06 12:31:23;;;;;;;14.00;8.13;;;7.50;99.90;;;;;;5062027;28;20516;-51
2021/03/06 12:33:49;;;;;;;9.80;6.57;;;7.50;99.90;;;;;;5066309;28;20524;-52
2021/03/06 12:36:16;;;;;;;12.93;7.63;;;7.50;99.90;;;;;;5063891;28;20963;-52
2021/03/06 12:38:44;;;;;;;13.90;7.53;;;7.20;99.90;;;;;;5062569;28;20499;-52
2021/03/06 12:41:11;;;;;;;12.47;7.50;;;7.40;99.90;;;;;;5064690;28;20476;-52
2021/03/06 12:43:37;;;;;;;13.07;7.90;;;7.50;99.90;;;;;;5064514;28;21060;-51
2021/03/06 12:46:04;;;;;;;11.83;7.53;;;7.40;99.90;;;;;;5066912;28;20474;-52
2021/03/06 12:48:30;;;;;;;11.90;7.30;;;7.40;99.90;;;;;;5067589;28;20487;-51
2021/03/06 12:50:57;;;;;;;10.83;7.33;;;7.30;99.90;;;;;;5067060;28;20461;-52
2021/03/06 12:53:24;;;;;;;11.60;7.30;;;7.50;99.90;;;;;;5067166;28;20501;-51
2021/03/06 12:55:51;;;;;;;9.53;6.07;;;7.60;99.90;;;;;;5068134;28;20872;-52
2021/03/06 12:58:18;;;;;;;12.00;7.20;;;7.70;99.90;;;;;;5053675;28;20959;-51
2021/03/06 13:00:44;;;;;;;13.13;7.13;;;7.30;99.90;;;;;;5072037;28;20842;-52
2021/03/06 13:03:11;;;;;;;12.00;7.03;;;7.30;99.90;;;;;;5072884;28;20472;-52